Terminal Aerodrome Forecast
Issued by NWS Shreveport, LA

Home | Current Version | Previous Version | Text Only | Print | Product List | Glossary On
Versions: 1 2 3 4 5 6 7 8 9 10 11 12
955
FTUS44 KSHV 282340
TAFTXK
TAF
KTXK 282340Z 2900/2924 24004KT P6SM SKC
     FM290400 34006KT P6SM SKC
     FM291000 02010KT P6SM SKC
     FM291800 36008KT P6SM SKC=

USA.gov is the U.S. government's official web portal to all federal, state and local government web resources and services.